createdAt,value
2022-08-20T00:00:20.290Z,97426.97
2022-08-20T00:02:21.595Z,97426.13
2022-08-20T00:04:24.423Z,97425.03
2022-08-20T00:06:26.051Z,97427.81
2022-08-20T00:08:27.362Z,97433.75
2022-08-20T00:10:28.713Z,97434.66
2022-08-20T00:12:30.074Z,97424.47
2022-08-20T00:14:31.392Z,97410.88
2022-08-20T00:16:35.519Z,97405.88
2022-08-20T00:18:37.205Z,97412.25
2022-08-20T00:20:38.543Z,97416.91
2022-08-20T00:22:39.919Z,97421.84
2022-08-20T00:24:41.302Z,97421.00
2022-08-20T00:26:52.233Z,97415.00
2022-08-20T00:28:54.186Z,97414.06
2022-08-20T00:30:55.495Z,97421.00
2022-08-20T00:32:57.650Z,97433.81
2022-08-20T00:34:58.964Z,97432.97
2022-08-20T00:37:00.442Z,97435.59
2022-08-20T00:39:01.821Z,97439.84
2022-08-20T00:41:03.136Z,97425.28
2022-08-20T00:43:04.453Z,97424.41
2022-08-20T00:45:05.763Z,97420.94
2022-08-20T00:47:07.084Z,97421.00
2022-08-20T00:49:08.582Z,97422.72
2022-08-20T00:51:09.906Z,97421.13
2022-08-20T00:53:11.255Z,97425.34
2022-08-20T00:55:12.557Z,97423.69
2022-08-20T00:57:13.998Z,97406.66
2022-08-20T00:59:15.346Z,97414.38
2022-08-20T01:01:16.697Z,97419.59
2022-08-20T01:03:20.362Z,97417.75
2022-08-20T01:05:23.525Z,97420.31
2022-08-20T01:07:34.847Z,97424.59
2022-08-20T01:09:58.272Z,97423.44
2022-08-20T01:11:57.484Z,97433.66
2022-08-20T01:13:59.699Z,97434.53
2022-08-20T01:16:01.003Z,97428.63
2022-08-20T01:18:02.404Z,97428.63
2022-08-20T01:20:03.740Z,97420.16
2022-08-20T01:22:25.007Z,97415.88
2022-08-20T01:24:26.450Z,97410.81
2022-08-20T01:26:27.758Z,97416.78
2022-08-20T01:28:29.105Z,97413.28
2022-08-20T01:30:30.420Z,97412.53
2022-08-20T01:32:31.726Z,97424.41
2022-08-20T01:34:33.648Z,97416.78
2022-08-20T01:36:34.958Z,97417.59
2022-08-20T01:38:36.250Z,97421.06
2022-08-20T01:40:37.623Z,97416.78
2022-08-20T01:42:58.731Z,97423.56
2022-08-20T01:45:01.908Z,97421.06
2022-08-20T01:47:05.739Z,97426.13
2022-08-20T01:49:07.101Z,97427.16
2022-08-20T01:51:15.068Z,97428.22
2022-08-20T01:53:16.382Z,97434.31
2022-08-20T01:55:17.684Z,97434.31
2022-08-20T01:57:18.998Z,97426.66
2022-08-20T01:59:20.294Z,97418.09
2022-08-20T02:01:21.676Z,97418.13
2022-08-20T02:03:23.231Z,97424.19
2022-08-20T02:05:24.558Z,97413.94
2022-08-20T02:07:32.437Z,97421.63
2022-08-20T02:09:33.754Z,97423.34
2022-08-20T02:11:35.075Z,97430.19
2022-08-20T02:13:36.404Z,97429.34
2022-08-20T02:15:39.769Z,97429.34
2022-08-20T02:17:44.229Z,97425.16
2022-08-20T02:19:45.530Z,97422.59
2022-08-20T02:21:46.863Z,97426.94
2022-08-20T02:23:48.171Z,97432.84
2022-08-20T02:25:49.554Z,97423.56
2022-08-20T02:27:51.882Z,97426.94
2022-08-20T02:29:53.439Z,97432.84
2022-08-20T02:32:32.365Z,97425.72
2022-08-20T02:34:22.768Z,97418.56
2022-08-20T02:36:24.675Z,97416.00
2022-08-20T02:38:26.003Z,97414.34
2022-08-20T02:40:30.514Z,97415.13
2022-08-20T02:42:32.441Z,97407.50
2022-08-20T02:44:33.757Z,97410.81
2022-08-20T02:46:35.343Z,97409.25
2022-08-20T02:48:36.650Z,97417.78
2022-08-20T02:50:38.018Z,97413.50
2022-08-20T02:52:39.322Z,97405.06
2022-08-20T02:54:50.242Z,97403.31
2022-08-20T02:56:52.174Z,97398.13
2022-08-20T02:58:53.474Z,97402.41
2022-08-20T03:00:55.625Z,97402.41
2022-08-20T03:02:57.174Z,97399.03
2022-08-20T03:04:58.500Z,97400.56
2022-08-20T03:06:59.864Z,97398.78
2022-08-20T03:09:01.222Z,97396.94
2022-08-20T03:11:02.570Z,97393.47
2022-08-20T03:13:03.871Z,97393.59
2022-08-20T03:15:05.178Z,97395.38
2022-08-20T03:17:06.564Z,97391.28
2022-08-20T03:19:08.560Z,97386.16
2022-08-20T03:21:10.081Z,97393.47
2022-08-20T03:23:11.395Z,97396.94
2022-08-20T03:25:12.803Z,97395.22
2022-08-20T03:27:14.113Z,97392.69
2022-08-20T03:29:15.419Z,97393.47
2022-08-20T03:31:16.796Z,97391.16
2022-08-20T03:33:20.192Z,97396.03
2022-08-20T03:35:21.625Z,97390.03
2022-08-20T03:37:22.918Z,97389.41
2022-08-20T03:39:24.216Z,97387.66
2022-08-20T03:41:25.558Z,97392.69
2022-08-20T03:43:26.981Z,97390.09
2022-08-20T03:45:28.330Z,97389.38
2022-08-20T03:47:29.628Z,97398.84
2022-08-20T03:49:31.774Z,97397.09
2022-08-20T03:51:34.362Z,97396.28
2022-08-20T03:53:54.401Z,97402.94
2022-08-20T03:55:59.307Z,97402.09
2022-08-20T03:58:03.459Z,97396.22
2022-08-20T04:00:04.860Z,97401.28
2022-08-20T04:02:06.601Z,97394.53
2022-08-20T04:04:12.655Z,97390.38
2022-08-20T04:06:14.168Z,97392.91
2022-08-20T04:08:15.958Z,97393.72
2022-08-20T04:10:17.300Z,97395.47
2022-08-20T04:12:18.667Z,97387.78
2022-08-20T04:14:20.559Z,97386.84
2022-08-20T04:16:22.455Z,97386.94
2022-08-20T04:18:24.317Z,97398.06
2022-08-20T04:20:26.178Z,97396.34
2022-08-20T04:22:27.514Z,97395.50
2022-08-20T04:24:32.164Z,97391.41
2022-08-20T04:26:36.315Z,97395.56
2022-08-20T04:28:37.627Z,97390.44
2022-08-20T04:30:39.018Z,97395.34
2022-08-20T04:32:45.303Z,97395.38
2022-08-20T04:34:47.248Z,97398.72
2022-08-20T04:36:48.704Z,97401.28
2022-08-20T04:38:51.109Z,97401.47
2022-08-20T04:40:58.674Z,97404.94
2022-08-20T04:43:00.005Z,97399.22
2022-08-20T04:45:01.312Z,97403.72
2022-08-20T04:47:02.619Z,97403.69
2022-08-20T04:49:04.307Z,97403.72
2022-08-20T04:51:05.751Z,97408.09
2022-08-20T04:53:09.731Z,97408.09
2022-08-20T04:55:11.035Z,97412.38
2022-08-20T04:57:12.350Z,97410.75
2022-08-20T04:59:13.651Z,97415.66
2022-08-20T05:01:15.083Z,97412.38
2022-08-20T05:03:16.451Z,97409.34
2022-08-20T05:05:17.749Z,97414.34
2022-08-20T05:07:19.138Z,97419.69
2022-08-20T05:09:20.429Z,97423.97
2022-08-20T05:11:34.698Z,97425.81
2022-08-20T05:13:38.383Z,97444.59
2022-08-20T05:15:39.779Z,97434.41
2022-08-20T05:17:41.114Z,97429.19
2022-08-20T05:19:42.691Z,97425.81
2022-08-20T05:21:44.075Z,97423.34
2022-08-20T05:23:45.384Z,97428.22
2022-08-20T05:25:48.001Z,97436.78
2022-08-20T05:27:49.331Z,97428.38
2022-08-20T05:29:52.003Z,97430.03
2022-08-20T05:31:54.011Z,97437.63
2022-08-20T05:33:56.871Z,97439.31
2022-08-20T05:35:58.610Z,97438.50
2022-08-20T05:38:00.955Z,97426.53
2022-08-20T05:40:02.665Z,97434.34
2022-08-20T05:42:04.141Z,97443.81
2022-08-20T05:44:05.516Z,97443.09
2022-08-20T05:46:06.826Z,97438.81
2022-08-20T05:48:08.370Z,97433.78
2022-08-20T05:50:09.686Z,97439.66
2022-08-20T05:52:21.151Z,97437.97
2022-08-20T05:54:23.802Z,97443.75
2022-08-20T05:56:26.616Z,97438.59
2022-08-20T05:58:31.091Z,97440.31
2022-08-20T06:00:33.268Z,97440.31
2022-08-20T06:02:53.127Z,97442.03
2022-08-20T06:04:56.230Z,97445.50
2022-08-20T06:06:57.756Z,97437.75
2022-08-20T06:08:59.066Z,97446.91
2022-08-20T06:11:00.446Z,97452.88
2022-08-20T06:13:02.967Z,97445.13
2022-08-20T06:15:04.299Z,97448.53
2022-08-20T06:17:05.693Z,97444.56
2022-08-20T06:19:11.256Z,97448.88
2022-08-20T06:21:12.779Z,97438.63
2022-08-20T06:23:14.119Z,97429.22
2022-08-20T06:25:15.501Z,97454.06
2022-08-20T06:27:16.894Z,97465.38
2022-08-20T06:29:18.199Z,97446.69
2022-08-20T06:31:19.500Z,97456.09
2022-08-20T06:33:20.812Z,97450.13
2022-08-20T06:35:22.151Z,97448.41
2022-08-20T06:37:23.502Z,97451.84
2022-08-20T06:39:32.354Z,97459.50
2022-08-20T06:41:37.082Z,97456.09
2022-08-20T06:43:38.547Z,97456.09
2022-08-20T06:45:39.920Z,97451.91
2022-08-20T06:47:41.352Z,97463.78
2022-08-20T06:49:42.647Z,97443.34
2022-08-20T06:51:45.121Z,97454.94
2022-08-20T06:53:51.386Z,97452.22
2022-08-20T06:55:52.727Z,97454.84
2022-08-20T06:57:54.043Z,97459.59
2022-08-20T06:59:55.404Z,97455.47
2022-08-20T07:01:56.867Z,97456.31
2022-08-20T07:03:59.708Z,97464.19
2022-08-20T07:06:01.134Z,97455.63
2022-08-20T07:08:02.688Z,97459.16
2022-08-20T07:10:03.994Z,97456.69
2022-08-20T07:12:05.298Z,97455.84
2022-08-20T07:14:08.338Z,97462.72
2022-08-20T07:16:09.661Z,97468.66
2022-08-20T07:18:10.971Z,97458.47
2022-08-20T07:20:12.262Z,97459.31
2022-08-20T07:22:14.536Z,97464.47
2022-08-20T07:24:15.842Z,97454.78
2022-08-20T07:26:17.231Z,97464.19
2022-08-20T07:28:18.794Z,97468.06
2022-08-20T07:30:57.141Z,97460.69
2022-08-20T07:32:59.339Z,97462.22
2022-08-20T07:35:01.522Z,97477.88
2022-08-20T07:37:02.895Z,97474.78
2022-08-20T07:39:06.031Z,97469.50
2022-08-20T07:41:07.581Z,97476.19
2022-08-20T07:43:09.874Z,97476.72
2022-08-20T07:45:12.856Z,97477.53
2022-08-20T07:47:14.172Z,97487.03
2022-08-20T07:49:15.491Z,97495.44
2022-08-20T07:51:18.124Z,97485.31
2022-08-20T07:53:19.452Z,97490.47
2022-08-20T07:55:21.187Z,97493.94
2022-08-20T07:57:22.525Z,97485.44
2022-08-20T07:59:23.986Z,97491.41
2022-08-20T08:01:29.587Z,97491.53
2022-08-20T08:03:39.687Z,97488.94
2022-08-20T08:05:53.902Z,97493.22
2022-08-20T08:07:55.454Z,97490.72
2022-08-20T08:09:56.775Z,97491.50
2022-08-20T08:11:59.017Z,97494.16
2022-08-20T08:14:00.459Z,97495.09
2022-08-20T08:16:02.120Z,97495.16
2022-08-20T08:18:03.420Z,97499.56
2022-08-20T08:20:04.792Z,97496.94
2022-08-20T08:22:06.167Z,97489.31
2022-08-20T08:24:07.469Z,97496.16
2022-08-20T08:26:08.771Z,97491.97
2022-08-20T08:28:17.666Z,97500.53
2022-08-20T08:30:18.975Z,97501.31
2022-08-20T08:32:20.278Z,97504.81
2022-08-20T08:34:22.208Z,97511.53
2022-08-20T08:36:24.743Z,97511.69
2022-08-20T08:38:26.102Z,97516.66
2022-08-20T08:40:27.459Z,97510.66
2022-08-20T08:42:28.770Z,97518.41
2022-08-20T08:44:30.070Z,97514.94
2022-08-20T08:46:31.415Z,97514.19
2022-08-20T08:48:32.789Z,97518.41
2022-08-20T08:50:53.446Z,97511.53
2022-08-20T08:52:59.211Z,97516.81
2022-08-20T08:55:00.515Z,97512.50
2022-08-20T08:57:01.861Z,97502.25
2022-08-20T08:59:04.042Z,97500.50
2022-08-20T09:01:08.122Z,97506.44
2022-08-20T09:03:13.243Z,97510.78
2022-08-20T09:05:15.071Z,97511.53
2022-08-20T09:07:16.403Z,97509.91
2022-08-20T09:09:17.703Z,97519.34
2022-08-20T09:11:19.038Z,97518.44
2022-08-20T09:13:20.374Z,97521.09
2022-08-20T09:15:21.727Z,97527.81
2022-08-20T09:17:23.041Z,97528.78
2022-08-20T09:19:24.358Z,97532.28
2022-08-20T09:21:25.719Z,97528.78
2022-08-20T09:23:27.175Z,97537.38
2022-08-20T09:25:28.474Z,97533.25
2022-08-20T09:27:31.252Z,97528.13
2022-08-20T09:29:33.025Z,97540.03
2022-08-20T09:31:34.754Z,97532.25
2022-08-20T09:33:38.694Z,97535.78
2022-08-20T09:35:40.888Z,97534.25
2022-08-20T09:37:42.259Z,97534.38
2022-08-20T09:39:43.645Z,97535.28
2022-08-20T09:41:44.975Z,97537.94
2022-08-20T09:43:46.342Z,97539.66
2022-08-20T09:45:47.646Z,97537.94
2022-08-20T09:47:56.485Z,97537.09
2022-08-20T09:50:10.662Z,97543.00
2022-08-20T09:52:12.010Z,97542.19
2022-08-20T09:54:13.311Z,97540.44
2022-08-20T09:56:14.718Z,97549.88
2022-08-20T09:58:16.031Z,97549.91
2022-08-20T10:00:17.333Z,97548.22
2022-08-20T10:02:18.658Z,97550.75
2022-08-20T10:04:19.962Z,97544.84
2022-08-20T10:06:21.325Z,97539.72
2022-08-20T10:08:22.766Z,97542.28
2022-08-20T10:10:24.067Z,97535.44
2022-08-20T10:12:25.371Z,97539.66
2022-08-20T10:14:27.254Z,97540.59
2022-08-20T10:16:29.495Z,97533.69
2022-08-20T10:18:30.850Z,97533.78
2022-08-20T10:20:32.622Z,97532.06
2022-08-20T10:22:33.999Z,97539.63
2022-08-20T10:24:35.358Z,97544.84
2022-08-20T10:26:36.654Z,97547.41
2022-08-20T10:28:38.010Z,97535.50
2022-08-20T10:30:39.344Z,97540.53
2022-08-20T10:32:41.073Z,97543.22
2022-08-20T10:34:42.762Z,97546.66
2022-08-20T10:36:44.075Z,97556.03
2022-08-20T10:38:45.878Z,97548.44
2022-08-20T10:40:52.232Z,97545.88
2022-08-20T10:42:54.046Z,97550.94
2022-08-20T10:44:55.418Z,97556.03
2022-08-20T10:46:57.183Z,97554.28
2022-08-20T10:48:58.725Z,97554.28
2022-08-20T10:51:00.135Z,97561.56
2022-08-20T10:53:01.434Z,97564.41
2022-08-20T10:55:04.823Z,97561.06
2022-08-20T10:57:06.131Z,97565.44
2022-08-20T10:59:07.426Z,97572.25
2022-08-20T11:01:08.949Z,97569.84
2022-08-20T11:03:10.263Z,97569.09
2022-08-20T11:05:11.650Z,97569.88
2022-08-20T11:07:13.005Z,97572.44
2022-08-20T11:09:14.310Z,97572.50
2022-08-20T11:11:15.662Z,97577.47
2022-08-20T11:13:16.968Z,97574.06
2022-08-20T11:15:18.369Z,97574.06
2022-08-20T11:17:20.942Z,97574.13
2022-08-20T11:19:22.248Z,97569.88
2022-08-20T11:21:23.590Z,97566.47
2022-08-20T11:23:24.895Z,97569.22
2022-08-20T11:25:26.218Z,97563.66
2022-08-20T11:27:27.545Z,97570.47
2022-08-20T11:29:33.425Z,97572.19
2022-08-20T11:31:35.303Z,97585.19
2022-08-20T11:33:36.659Z,97580.16
2022-08-20T11:35:43.463Z,97578.56
2022-08-20T11:37:51.004Z,97579.47
2022-08-20T11:39:52.370Z,97572.66
2022-08-20T11:41:54.789Z,97593.97
2022-08-20T11:44:20.199Z,97581.22
2022-08-20T11:46:18.167Z,97582.06
2022-08-20T11:48:19.522Z,97580.38
2022-08-20T11:50:20.831Z,97586.34
2022-08-20T11:52:22.208Z,97588.97
2022-08-20T11:54:25.286Z,97591.47
2022-08-20T11:56:27.435Z,97593.16
2022-08-20T11:58:28.788Z,97593.19
2022-08-20T12:00:32.809Z,97580.38
2022-08-20T12:02:35.134Z,97580.38
2022-08-20T12:04:37.039Z,97585.50
2022-08-20T12:06:38.650Z,97584.63
2022-08-20T12:08:39.999Z,97589.75
2022-08-20T12:10:41.302Z,97591.47
2022-08-20T12:12:42.614Z,97579.50
2022-08-20T12:14:43.921Z,97588.91
2022-08-20T12:16:45.258Z,97588.91
2022-08-20T12:18:46.689Z,97587.19
2022-08-20T12:20:48.079Z,97592.31
2022-08-20T12:22:53.950Z,97583.75
2022-08-20T12:24:55.290Z,97588.03
2022-08-20T12:26:56.745Z,97586.31
2022-08-20T12:28:59.092Z,97590.50
2022-08-20T12:31:00.429Z,97584.59
2022-08-20T12:33:01.918Z,97597.38
2022-08-20T12:35:03.232Z,97588.78
2022-08-20T12:37:05.280Z,97586.31
2022-08-20T12:39:07.877Z,97589.72
2022-08-20T12:41:09.922Z,97598.19
2022-08-20T12:43:11.234Z,97601.59
2022-08-20T12:45:12.578Z,97608.44
2022-08-20T12:47:13.938Z,97456.28
2022-08-20T12:49:15.271Z,97599.88
2022-08-20T12:51:16.594Z,97609.09
2022-08-20T12:53:17.921Z,97607.69
2022-08-20T12:55:19.359Z,97607.03
2022-08-20T12:57:20.663Z,97603.16
2022-08-20T12:59:25.420Z,97601.84
2022-08-20T13:01:27.414Z,97608.91
2022-08-20T13:03:28.794Z,97605.97
2022-08-20T13:05:33.949Z,97609.91
2022-08-20T13:07:35.277Z,97609.53
2022-08-20T13:09:36.601Z,97606.25
2022-08-20T13:11:41.774Z,97612.31
2022-08-20T13:13:43.567Z,97606.59
2022-08-20T13:15:44.937Z,97609.06
2022-08-20T13:17:46.276Z,97617.44
2022-08-20T13:19:47.663Z,97616.19
2022-08-20T13:21:55.006Z,97613.75
2022-08-20T13:23:56.865Z,97610.31
2022-08-20T13:25:58.373Z,97618.88
2022-08-20T13:27:59.689Z,97622.28
2022-08-20T13:30:01.156Z,97627.44
2022-08-20T13:32:02.511Z,97625.72
2022-08-20T13:34:03.819Z,97620.94
2022-08-20T13:36:05.127Z,97615.19
2022-08-20T13:38:06.427Z,97618.38
2022-08-20T13:40:10.683Z,97616.53
2022-08-20T13:42:12.099Z,97613.44
2022-08-20T13:44:13.400Z,97611.91
2022-08-20T13:46:14.750Z,97616.16
2022-08-20T13:48:16.068Z,97612.63
2022-08-20T13:50:17.553Z,97616.81
2022-08-20T13:52:18.903Z,97618.13
2022-08-20T13:54:23.958Z,97617.22
2022-08-20T13:56:27.410Z,97617.50
2022-08-20T13:58:28.715Z,97621.19
2022-08-20T14:00:31.654Z,97618.50
2022-08-20T14:02:34.514Z,97607.63
2022-08-20T14:04:35.875Z,97517.94
2022-08-20T14:06:37.427Z,97473.59
2022-08-20T14:08:38.735Z,97617.59
2022-08-20T14:10:40.098Z,97622.13
2022-08-20T14:12:44.098Z,97625.75
2022-08-20T14:14:45.427Z,97623.41
2022-08-20T14:16:46.814Z,97624.34
2022-08-20T14:18:52.591Z,97621.78
2022-08-20T14:20:54.198Z,97622.69
2022-08-20T14:22:55.664Z,97620.31
2022-08-20T14:24:57.246Z,97619.47
2022-08-20T14:26:58.556Z,97628.03
2022-08-20T14:28:59.859Z,97634.34
2022-08-20T14:31:01.178Z,97628.09
2022-08-20T14:33:02.491Z,97636.25
2022-08-20T14:35:03.877Z,97631.09
2022-08-20T14:37:05.183Z,97631.56
2022-08-20T14:39:06.478Z,97638.94
2022-08-20T14:41:07.796Z,97637.13
2022-08-20T14:43:09.099Z,97641.25
2022-08-20T14:45:10.486Z,97647.66
2022-08-20T14:47:11.847Z,97643.03
2022-08-20T14:49:13.232Z,97641.34
2022-08-20T14:51:14.615Z,97638.34
2022-08-20T14:53:16.034Z,97638.94
2022-08-20T14:55:17.379Z,97643.19
2022-08-20T14:57:18.723Z,97631.63
2022-08-20T14:59:20.027Z,97648.50
2022-08-20T15:01:21.570Z,97650.09
2022-08-20T15:03:25.534Z,97657.84
2022-08-20T15:05:26.863Z,97656.88
2022-08-20T15:07:28.565Z,97647.06
2022-08-20T15:09:29.915Z,97644.25
2022-08-20T15:11:34.471Z,97649.44
2022-08-20T15:13:36.002Z,97656.47
2022-08-20T15:15:37.543Z,97655.00
2022-08-20T15:17:38.940Z,97578.84
2022-08-20T15:19:40.335Z,97657.63
2022-08-20T15:21:45.668Z,97659.84
2022-08-20T15:23:47.253Z,97652.00
2022-08-20T15:25:48.569Z,97662.22
2022-08-20T15:27:49.931Z,97662.22
2022-08-20T15:29:51.238Z,97659.22
2022-08-20T15:31:52.590Z,97665.44
2022-08-20T15:33:53.951Z,97660.00
2022-08-20T15:35:55.298Z,97664.31
2022-08-20T15:37:56.655Z,97649.91
2022-08-20T15:39:58.112Z,97657.75
2022-08-20T15:41:59.434Z,97649.06
2022-08-20T15:44:00.771Z,97652.22
2022-08-20T15:46:02.074Z,97650.38
2022-08-20T15:48:03.418Z,97654.03
2022-08-20T15:50:04.755Z,97658.13
2022-08-20T15:52:15.182Z,97657.84
2022-08-20T15:54:16.571Z,97660.81
2022-08-20T15:56:17.886Z,97665.28
2022-08-20T15:58:19.222Z,97661.13
2022-08-20T16:00:20.610Z,97663.38
2022-08-20T16:02:25.642Z,97664.19
2022-08-20T16:04:27.318Z,97656.16
2022-08-20T16:06:28.706Z,97670.28
2022-08-20T16:08:30.048Z,97666.66
2022-08-20T16:10:32.340Z,97668.03
2022-08-20T16:12:33.730Z,97670.78
2022-08-20T16:14:35.070Z,97673.34
2022-08-20T16:16:36.478Z,97668.03
2022-08-20T16:18:37.888Z,97666.59
2022-08-20T16:20:39.207Z,97670.84
2022-08-20T16:22:40.560Z,97677.66
2022-08-20T16:24:41.934Z,97687.31
2022-08-20T16:26:43.695Z,97679.44
2022-08-20T16:28:45.030Z,97684.41
2022-08-20T16:30:46.336Z,97687.91
2022-08-20T16:32:47.703Z,97687.22
2022-08-20T16:34:49.038Z,97692.72
2022-08-20T16:37:03.037Z,97692.25
2022-08-20T16:39:05.137Z,97693.44
2022-08-20T16:41:06.662Z,97695.72
2022-08-20T16:43:08.051Z,97692.50
2022-08-20T16:45:09.570Z,97693.94
2022-08-20T16:47:14.190Z,97690.88
2022-08-20T16:49:15.672Z,97693.44
2022-08-20T16:51:16.978Z,97700.81
2022-08-20T16:53:18.343Z,97695.19
2022-08-20T16:55:19.695Z,97697.88
2022-08-20T16:57:21.015Z,97695.56
2022-08-20T16:59:27.306Z,97694.19
2022-08-20T17:01:28.910Z,97701.66
2022-08-20T17:03:31.478Z,97690.34
2022-08-20T17:05:41.135Z,97691.66
2022-08-20T17:07:43.494Z,97695.66
2022-08-20T17:09:47.573Z,97688.47
2022-08-20T17:11:51.667Z,97701.19
2022-08-20T17:13:52.958Z,97704.59
2022-08-20T17:15:54.295Z,97698.50
2022-08-20T17:17:55.989Z,97701.06
2022-08-20T17:19:57.378Z,97702.09
2022-08-20T17:21:58.718Z,97703.50
2022-08-20T17:24:00.028Z,97707.72
2022-08-20T17:26:01.393Z,97712.72
2022-08-20T17:28:03.005Z,97710.09
2022-08-20T17:30:04.306Z,97711.25
2022-08-20T17:32:05.615Z,97713.66
2022-08-20T17:34:06.976Z,97713.53
2022-08-20T17:36:09.088Z,97715.44
2022-08-20T17:38:10.460Z,97718.28
2022-08-20T17:40:13.822Z,97715.59
2022-08-20T17:42:15.150Z,97718.13
2022-08-20T17:44:16.461Z,97724.78
2022-08-20T17:46:17.768Z,97715.19
2022-08-20T17:48:19.081Z,97714.69
2022-08-20T17:50:20.436Z,97719.03
2022-08-20T17:52:21.783Z,97719.44
2022-08-20T17:54:23.123Z,97727.22
2022-08-20T17:56:24.479Z,97733.09
2022-08-20T17:58:25.866Z,97730.56
2022-08-20T18:00:27.946Z,97739.75
2022-08-20T18:02:29.316Z,97747.47
2022-08-20T18:04:30.631Z,97747.53
2022-08-20T18:06:31.954Z,97747.53
2022-08-20T18:08:33.355Z,97753.38
2022-08-20T18:10:34.655Z,97754.06
2022-08-20T18:12:35.984Z,97755.88
2022-08-20T18:14:37.339Z,97755.81
2022-08-20T18:16:38.653Z,97760.81
2022-08-20T18:18:56.973Z,97761.78
2022-08-20T18:20:58.784Z,97765.94
2022-08-20T18:23:00.113Z,97764.69
2022-08-20T18:25:01.802Z,97770.09
2022-08-20T18:27:03.371Z,97770.69
2022-08-20T18:29:11.004Z,97774.00
2022-08-20T18:31:13.395Z,97770.47
2022-08-20T18:33:14.716Z,97773.81
2022-08-20T18:35:16.094Z,97777.13
2022-08-20T18:37:17.387Z,97773.66
2022-08-20T18:39:18.738Z,97761.72
2022-08-20T18:41:20.320Z,97766.84
2022-08-20T18:43:22.688Z,97771.88
2022-08-20T18:45:23.978Z,97772.38
2022-08-20T18:47:25.460Z,97764.94
2022-08-20T18:49:26.806Z,97761.53
2022-08-20T18:51:28.220Z,97760.56
2022-08-20T18:53:33.660Z,97764.84
2022-08-20T18:55:36.856Z,97769.75
2022-08-20T18:57:41.180Z,97770.72
2022-08-20T18:59:43.207Z,97778.44
2022-08-20T19:01:44.678Z,97766.34
2022-08-20T19:03:46.078Z,97776.63
2022-08-20T19:05:47.403Z,97772.25
2022-08-20T19:07:49.156Z,97771.41
2022-08-20T19:09:50.563Z,97779.56
2022-08-20T19:11:51.880Z,97775.06
2022-08-20T19:13:53.601Z,97780.09
2022-08-20T19:15:55.246Z,97771.53
2022-08-20T19:17:56.679Z,97775.16
2022-08-20T19:19:58.082Z,97775.53
2022-08-20T19:21:59.414Z,97776.16
2022-08-20T19:24:00.775Z,97775.66
2022-08-20T19:26:02.095Z,97773.19
2022-08-20T19:28:03.400Z,97776.59
2022-08-20T19:30:04.759Z,97776.75
2022-08-20T19:32:06.106Z,97765.03
2022-08-20T19:34:21.750Z,97770.06
2022-08-20T19:36:28.150Z,97769.94
2022-08-20T19:38:29.831Z,97761.59
2022-08-20T19:40:32.087Z,97765.56
2022-08-20T19:42:33.580Z,97765.66
2022-08-20T19:44:35.835Z,97762.81
2022-08-20T19:46:37.144Z,97755.47
2022-08-20T19:48:38.863Z,97755.53
2022-08-20T19:50:41.716Z,97758.44
2022-08-20T19:52:43.453Z,97754.63
2022-08-20T19:54:44.795Z,97751.75
2022-08-20T19:56:46.160Z,97752.13
2022-08-20T19:58:47.471Z,97751.84
2022-08-20T20:00:48.774Z,97740.59
2022-08-20T20:02:50.387Z,97749.84
2022-08-20T20:04:54.882Z,97744.84
2022-08-20T20:06:58.399Z,97748.13
2022-08-20T20:08:59.751Z,97756.75
2022-08-20T20:11:01.193Z,97750.31
2022-08-20T20:13:02.547Z,97744.25
2022-08-20T20:15:03.956Z,97747.50
2022-08-20T20:17:05.347Z,97742.91
2022-08-20T20:19:25.719Z,97731.78
2022-08-20T20:21:27.533Z,97726.66
2022-08-20T20:23:45.570Z,97733.41
2022-08-20T20:25:48.939Z,97732.59
2022-08-20T20:27:50.657Z,97730.00
2022-08-20T20:29:52.080Z,97734.81
2022-08-20T20:31:53.406Z,97723.69
2022-08-20T20:33:54.719Z,97728.72
2022-08-20T20:35:56.039Z,97718.78
2022-08-20T20:37:57.359Z,97715.03
2022-08-20T20:39:58.729Z,97715.75
2022-08-20T20:42:02.362Z,97719.84
2022-08-20T20:44:03.728Z,97721.16
2022-08-20T20:46:06.441Z,97718.66
2022-08-20T20:48:07.826Z,97718.84
2022-08-20T20:50:09.145Z,97723.81
2022-08-20T20:52:14.916Z,97717.94
2022-08-20T20:54:16.733Z,97715.31
2022-08-20T20:56:19.562Z,97716.97
2022-08-20T20:58:21.042Z,97720.72
2022-08-20T21:00:25.133Z,97714.69
2022-08-20T21:02:26.506Z,97705.00
2022-08-20T21:04:27.872Z,97706.75
2022-08-20T21:06:29.246Z,97706.09
2022-08-20T21:08:30.583Z,97703.22
2022-08-20T21:10:32.293Z,97702.16
2022-08-20T21:12:33.604Z,97708.16
2022-08-20T21:14:34.949Z,97699.50
2022-08-20T21:16:36.308Z,97701.28
2022-08-20T21:18:37.940Z,97703.00
2022-08-20T21:20:39.257Z,97704.66
2022-08-20T21:22:40.618Z,97696.69
2022-08-20T21:24:41.967Z,97705.22
2022-08-20T21:26:43.357Z,97693.94
2022-08-20T21:28:44.687Z,97696.41
2022-08-20T21:30:46.042Z,97694.59
2022-08-20T21:32:47.358Z,97690.22
2022-08-20T21:34:48.682Z,97697.13
2022-08-20T21:36:50.052Z,97686.84
2022-08-20T21:38:51.410Z,97696.16
2022-08-20T21:40:52.756Z,97690.16
2022-08-20T21:42:54.143Z,97689.28
2022-08-20T21:44:56.165Z,97689.19
2022-08-20T21:46:57.776Z,97693.16
2022-08-20T21:48:59.084Z,97692.00
2022-08-20T21:51:02.800Z,97696.84
2022-08-20T21:53:12.183Z,97701.25
2022-08-20T21:55:14.214Z,97694.72
2022-08-20T21:57:15.851Z,97692.06
2022-08-20T21:59:17.155Z,97685.56
2022-08-20T22:01:18.530Z,97690.78
2022-08-20T22:03:20.273Z,97686.09
2022-08-20T22:05:21.618Z,97695.31
2022-08-20T22:07:22.910Z,97690.03
2022-08-20T22:09:24.329Z,97688.88
2022-08-20T22:11:25.643Z,97693.84
2022-08-20T22:13:28.315Z,97684.09
2022-08-20T22:15:29.666Z,97692.00
2022-08-20T22:17:31.066Z,97682.88
2022-08-20T22:19:32.431Z,97696.72
2022-08-20T22:21:33.982Z,97696.03
2022-08-20T22:23:35.278Z,97698.81
2022-08-20T22:25:37.047Z,97699.97
2022-08-20T22:27:38.371Z,97703.44
2022-08-20T22:29:39.696Z,97702.69
2022-08-20T22:31:41.055Z,97696.84
2022-08-20T22:33:42.373Z,97697.84
2022-08-20T22:35:43.747Z,97695.28
2022-08-20T22:37:45.067Z,97703.09
2022-08-20T22:39:46.398Z,97701.47
2022-08-20T22:41:47.778Z,97705.00
2022-08-20T22:43:56.618Z,97700.75
2022-08-20T22:45:58.599Z,97704.25
2022-08-20T22:47:59.907Z,97707.75
2022-08-20T22:50:01.254Z,97698.47
2022-08-20T22:52:02.562Z,97697.72
2022-08-20T22:54:03.878Z,97694.41
2022-08-20T22:56:05.185Z,97698.59
2022-08-20T22:58:07.283Z,97701.22
2022-08-20T23:00:09.216Z,97707.34
2022-08-20T23:02:10.543Z,97696.38
2022-08-20T23:04:11.911Z,97698.94
2022-08-20T23:06:13.236Z,97696.44
2022-08-20T23:08:14.543Z,97696.56
2022-08-20T23:10:15.928Z,97698.47
2022-08-20T23:12:17.302Z,97699.31
2022-08-20T23:14:18.643Z,97702.81
2022-08-20T23:16:20.033Z,97696.84
2022-08-20T23:18:21.410Z,97696.03
2022-08-20T23:20:22.709Z,97690.00
2022-08-20T23:22:24.095Z,97687.56
2022-08-20T23:24:25.925Z,97692.78
2022-08-20T23:26:27.234Z,97693.63
2022-08-20T23:28:28.570Z,97695.19
2022-08-20T23:30:29.913Z,97691.84
2022-08-20T23:32:32.045Z,97680.75
2022-08-20T23:34:33.349Z,97682.66
2022-08-20T23:36:34.707Z,97685.69
2022-08-20T23:38:36.007Z,97679.69
2022-08-20T23:40:37.335Z,97680.63
2022-08-20T23:42:38.702Z,97680.53
2022-08-20T23:44:39.994Z,97674.75
2022-08-20T23:46:41.552Z,97553.13
2022-08-20T23:48:42.926Z,97682.31
2022-08-20T23:50:44.235Z,97679.03
2022-08-20T23:52:45.538Z,97679.97
2022-08-20T23:54:46.882Z,97679.06
2022-08-20T23:56:48.215Z,97682.53